Time;durP1;ratioP1;P1;durP2;ratioP2;P2;SDS_P1;SDS_P2;PMS_P1;PMS_P2;Temp;Humidity;BMP_temperature;BMP_pressure;BME280_temperature;BME280_humidity;BME280_pressure;Samples;Min_cycle;Max_cycle;Signal;HPM_P1;HPM_P2
2022/12/19 00:01:15;;;;;;;64.95;29.17;;;;;;;-145.18;100.00;46711.19;5012750;28;20038;-72
2022/12/19 00:03:53;;;;;;;69.45;28.30;;;;;;;-145.18;100.00;46693.59;5030663;28;20497;-72
2022/12/19 00:06:19;;;;;;;71.45;27.98;;;;;;;-145.18;100.00;46701.41;5030670;28;20025;-72
2022/12/19 00:08:47;;;;;;;76.17;30.87;;;;;;;-145.18;100.00;46705.31;5030671;28;20492;-72
2022/12/19 00:11:14;;;;;;;76.88;29.88;;;;;;;-145.18;100.00;46691.66;5030296;28;20414;-72
2022/12/19 00:13:40;;;;;;;72.57;30.37;;;;;;;-145.18;100.00;46693.59;5030910;28;20235;-72
2022/12/19 00:16:09;;;;;;;73.25;29.00;;;;;;;-145.18;100.00;46693.59;5030663;28;20666;-72
2022/12/19 00:18:35;;;;;;;71.63;27.45;;;;;;;-145.18;100.00;46691.66;5030799;28;20033;-72
2022/12/19 00:21:03;;;;;;;73.37;29.03;;;;;;;-145.18;100.00;46687.75;5030178;28;20038;-72
2022/12/19 00:23:30;;;;;;;63.25;27.10;;;;;;;-145.18;100.00;46693.59;5030411;28;20042;-72
2022/12/19 00:26:07;;;;;;;65.80;26.27;;;;;;;-145.18;100.00;46693.59;5029620;28;20465;-72
2022/12/19 00:28:33;;;;;;;68.57;26.48;;;;;;;-145.18;100.00;46689.69;5030813;28;20036;-72
2022/12/19 00:31:00;;;;;;;65.93;27.07;;;;;;;-145.18;100.00;46695.56;5030001;28;20034;-72
2022/12/19 00:33:25;;;;;;;63.20;25.83;;;;;;;-145.18;100.00;46687.75;5030522;28;20029;-72
2022/12/19 00:36:00;;;;;;;71.57;27.60;;;;;;;-145.18;100.00;46693.59;5029752;28;20293;-73
2022/12/19 00:38:25;;;;;;;67.20;27.63;;;;;;;-145.18;100.00;46687.75;5030428;28;20447;-72
2022/12/19 00:40:51;;;;;;;66.63;24.90;;;;;;;-145.18;100.00;46681.88;5030295;28;20267;-73
2022/12/19 00:43:16;;;;;;;73.63;28.10;;;;;;;-145.18;100.00;46685.78;5030214;28;20569;-73
2022/12/19 00:45:41;;;;;;;68.50;25.23;;;;;;;-145.18;100.00;46697.50;5030042;28;20037;-73
2022/12/19 00:48:07;;;;;;;65.47;27.60;;;;;;;-145.18;100.00;46683.84;5029585;28;20046;-73
2022/12/19 00:50:32;;;;;;;63.07;26.17;;;;;;;-145.18;100.00;46687.75;5030351;28;20112;-72
2022/12/19 00:52:58;;;;;;;58.93;24.27;;;;;;;-145.18;100.00;46683.84;5029890;28;20057;-72
2022/12/19 00:55:23;;;;;;;70.03;27.63;;;;;;;-145.18;100.00;46689.69;5030429;28;20048;-72
2022/12/19 00:57:49;;;;;;;63.20;25.90;;;;;;;-145.18;100.00;46699.47;5029716;28;20433;-72
2022/12/19 01:00:16;;;;;;;64.27;26.10;;;;;;;-145.18;100.00;46689.69;5030205;28;20136;-72
2022/12/19 01:02:41;;;;;;;63.70;24.00;;;;;;;-145.18;100.00;46685.78;5029523;28;20053;-72
2022/12/19 01:05:07;;;;;;;65.10;26.30;;;;;;;-145.18;100.00;46685.78;5029848;28;20291;-72
2022/12/19 01:07:32;;;;;;;66.67;28.47;;;;;;;-145.18;100.00;46685.78;5012431;28;20033;-72
2022/12/19 01:09:57;;;;;;;63.67;27.27;;;;;;;-145.18;100.00;46685.78;5029534;28;20037;-73
2022/12/19 01:15:07;;;;;;;73.07;28.03;;;;;;;-145.18;100.00;46681.88;5029893;28;20041;-73
2022/12/19 01:17:33;;;;;;;64.30;24.07;;;;;;;-145.18;100.00;46681.88;5029696;28;20271;-73
2022/12/19 01:19:59;;;;;;;66.60;25.73;;;;;;;-145.18;100.00;46683.84;5029636;28;20378;-73
2022/12/19 01:22:24;;;;;;;63.67;27.23;;;;;;;-145.18;100.00;46689.69;5029416;28;20282;-73
2022/12/19 01:24:49;;;;;;;57.40;23.40;;;;;;;-145.18;100.00;46691.66;5029925;28;20045;-73
2022/12/19 01:27:15;;;;;;;61.20;26.03;;;;;;;-145.18;100.00;46689.69;5029169;28;20112;-73
2022/12/19 01:29:40;;;;;;;57.03;24.07;;;;;;;-145.18;100.00;46689.69;5029467;28;20136;-73
2022/12/19 01:32:06;;;;;;;69.53;27.20;;;;;;;-145.18;100.00;46687.75;5029480;28;20033;-73
2022/12/19 01:34:31;;;;;;;62.93;24.43;;;;;;;-145.18;100.00;46687.75;5029613;28;20410;-73
2022/12/19 01:36:56;;;;;;;56.67;23.67;;;;;;;-145.18;100.00;46683.84;5032428;28;20167;-73
2022/12/19 01:39:22;;;;;;;66.20;24.70;;;;;;;-145.18;100.00;46693.59;5033346;28;20418;-73
2022/12/19 01:41:47;;;;;;;68.40;27.03;;;;;;;-145.18;100.00;46683.84;5033155;28;20131;-73
2022/12/19 01:44:13;;;;;;;71.07;27.37;;;;;;;-145.18;100.00;46687.75;5033260;28;20037;-73
2022/12/19 01:46:46;;;;;;;64.73;25.93;;;;;;;-145.18;100.00;46683.84;5032773;28;20405;-73
2022/12/19 01:49:18;;;;;;;63.03;28.07;;;;;;;-145.18;100.00;46687.75;5033217;28;20367;-73
2022/12/19 01:51:47;;;;;;;57.83;22.23;;;;;;;-145.18;100.00;46676.03;5033014;28;20275;-73
2022/12/19 01:54:20;;;;;;;61.10;25.27;;;;;;;-145.18;100.00;46683.84;5033150;28;20278;-73
2022/12/19 01:56:50;;;;;;;60.83;23.67;;;;;;;-145.18;100.00;46679.94;5033031;28;20279;-73
2022/12/19 01:59:21;;;;;;;54.67;23.57;;;;;;;-145.18;100.00;46689.69;4995308;28;20843;-73
2022/12/19 02:01:47;;;;;;;58.50;24.10;;;;;;;-145.18;100.00;46689.69;5011154;28;20838;-73
2022/12/19 02:04:12;;;;;;;51.70;23.80;;;;;;;-145.18;100.00;46689.69;5032795;28;20330;-73
2022/12/19 02:06:41;;;;;;;56.80;23.60;;;;;;;-145.18;100.00;46685.78;5032730;28;20045;-73
2022/12/19 02:09:07;;;;;;;54.57;22.83;;;;;;;-145.18;100.00;46683.84;5032882;28;20033;-74
2022/12/19 02:11:32;;;;;;;60.10;23.83;;;;;;;-145.18;100.00;46685.78;5032264;28;20695;-74
2022/12/19 02:13:58;;;;;;;61.70;24.23;;;;;;;-145.18;100.00;46687.75;5032622;28;20040;-74
2022/12/19 02:16:54;;;;;;;56.67;23.27;;;;;;;-145.18;100.00;46683.84;5032700;28;20474;-74
2022/12/19 02:19:41;;;;;;;64.13;24.50;;;;;;;-145.18;100.00;46693.59;5032746;28;20029;-73
2022/12/19 02:22:18;;;;;;;61.37;23.83;;;;;;;-145.18;100.00;46693.59;5017474;28;20440;-74
2022/12/19 02:25:07;;;;;;;54.73;23.53;;;;;;;-145.18;100.00;46689.69;5032721;28;20365;-74
2022/12/19 02:27:54;;;;;;;52.83;24.80;;;;;;;-145.18;100.00;46685.78;5032244;28;20271;-74
2022/12/19 02:30:31;;;;;;;;;;;;;;;-145.18;100.00;46685.78;5032918;28;20265;-74
2022/12/19 02:33:02;;;;;;;50.80;22.63;;;;;;;-145.18;100.00;46689.69;5032440;28;20001;-74
2022/12/19 02:35:39;;;;;;;54.33;23.00;;;;;;;-145.18;100.00;46695.56;5031943;28;20755;-74
2022/12/19 02:38:20;;;;;;;55.37;23.43;;;;;;;-145.18;100.00;46677.97;5031812;28;20350;-75
2022/12/19 02:40:54;;;;;;;51.10;23.23;;;;;;;-145.18;100.00;46689.69;5032220;28;20289;-75
2022/12/19 02:43:22;;;;;;;51.93;22.33;;;;;;;-145.18;100.00;46685.78;5031818;28;20365;-75
2022/12/19 02:45:50;;;;;;;54.73;24.33;;;;;;;-145.18;100.00;46683.84;5032105;28;20298;-75
2022/12/19 02:48:16;;;;;;;57.40;25.17;;;;;;;-145.18;100.00;46689.69;5031050;28;20352;-75
2022/12/19 02:50:44;;;;;;;56.70;25.87;;;;;;;-145.18;100.00;46687.75;5032049;28;20269;-75
2022/12/19 02:53:11;;;;;;;57.23;24.83;;;;;;;-145.18;100.00;46685.78;5032270;28;20258;-75
2022/12/19 02:55:49;;;;;;;57.03;24.50;;;;;;;-145.18;100.00;46689.69;5032162;28;20351;-76
2022/12/19 02:58:30;;;;;;;56.50;24.87;;;;;;;-145.18;100.00;46681.88;5031381;28;20635;-75
2022/12/19 03:03:48;;;;;;;53.90;23.88;;;;;;;-145.18;100.00;46683.84;5127133;22;20310;-76
2022/12/19 03:06:27;;;;;;;53.50;24.60;;;;;;;-145.18;100.00;46677.97;5028735;28;20035;-77
2022/12/19 03:09:01;;;;;;;57.73;26.57;;;;;;;-145.18;100.00;46687.75;5027477;28;20615;-76
2022/12/19 03:11:34;;;;;;;54.00;22.80;;;;;;;-145.18;100.00;46685.78;5031779;28;20286;-77
2022/12/19 03:14:05;;;;;;;56.73;23.13;;;;;;;-145.18;100.00;46677.97;5030881;28;20296;-76
2022/12/19 03:16:33;;;;;;;45.50;22.33;;;;;;;-145.18;100.00;46687.75;5031887;28;20262;-77
2022/12/19 03:18:59;;;;;;;48.20;23.03;;;;;;;-145.18;100.00;46679.94;5012444;28;20613;-77
2022/12/19 03:21:35;;;;;;;56.73;22.00;;;;;;;-145.18;100.00;46681.88;4994551;28;20271;-77
2022/12/19 03:24:01;;;;;;;46.75;20.27;;;;;;;-145.18;100.00;46685.78;5008736;28;20377;-77
2022/12/19 03:26:35;;;;;;;44.87;21.23;;;;;;;-145.18;100.00;46679.94;5012557;28;20066;-77
2022/12/19 03:29:19;;;;;;;45.03;20.77;;;;;;;-145.18;100.00;46683.84;5011320;28;20330;-77
2022/12/19 03:31:45;;;;;;;44.53;21.27;;;;;;;-145.18;100.00;46683.84;5011941;28;20799;-77
2022/12/19 03:34:42;;;;;;;41.93;20.13;;;;;;;-145.18;100.00;46683.84;5027335;28;20362;-77
2022/12/19 03:37:14;;;;;;;46.90;19.95;;;;;;;-145.18;100.00;46683.84;5025917;28;20275;-77
2022/12/19 03:39:42;;;;;;;42.80;20.07;;;;;;;-145.18;100.00;46676.03;5011698;28;20038;-77
2022/12/19 03:44:56;;;;;;;38.60;18.48;;;;;;;-145.18;100.00;46687.75;5011784;28;20786;-77
2022/12/19 03:47:40;;;;;;;40.83;19.17;;;;;;;-145.18;100.00;46681.88;5010875;28;20038;-78
2022/12/19 03:50:07;;;;;;;38.93;17.57;;;;;;;-145.18;100.00;46687.75;5011201;28;20302;-78
2022/12/19 03:52:35;;;;;;;38.67;18.57;;;;;;;-145.18;100.00;46689.69;5010226;28;20330;-77
2022/12/19 03:55:15;;;;;;;39.80;18.30;;;;;;;-145.18;100.00;46681.88;5011105;28;20267;-78
2022/12/19 03:57:57;;;;;;;38.03;18.60;;;;;;;-145.18;100.00;46685.78;5010877;28;20279;-78
2022/12/19 04:00:24;;;;;;;41.23;18.97;;;;;;;-145.18;100.00;46677.97;5010364;28;20282;-78
2022/12/19 04:02:53;;;;;;;36.97;18.20;;;;;;;-145.18;100.00;46683.84;5026863;28;20299;-77
2022/12/19 04:05:22;;;;;;;37.43;18.87;;;;;;;-145.18;100.00;46683.84;5030753;28;20322;-77
2022/12/19 04:07:50;;;;;;;35.23;18.60;;;;;;;-145.18;100.00;46683.84;5030315;28;20358;-77
2022/12/19 04:10:20;;;;;;;40.07;19.17;;;;;;;-145.18;100.00;46683.84;5030703;28;20265;-77
2022/12/19 04:13:01;;;;;;;39.20;19.07;;;;;;;-145.18;100.00;46679.94;5030398;28;20617;-78
2022/12/19 04:15:38;;;;;;;35.90;19.33;;;;;;;-145.18;100.00;46679.94;5030978;28;20354;-77
2022/12/19 04:18:05;;;;;;;35.93;18.40;;;;;;;-145.18;100.00;46683.84;5030348;28;20286;-77
2022/12/19 04:20:34;;;;;;;38.67;20.07;;;;;;;-145.18;100.00;46681.88;5030304;28;20279;-76
2022/12/19 04:23:11;;;;;;;38.90;18.73;;;;;;;-145.18;100.00;46677.97;5030164;28;20291;-76
2022/12/19 04:25:44;;;;;;;42.70;19.63;;;;;;;-145.18;100.00;46677.97;5030251;28;20290;-76
2022/12/19 04:28:38;;;;;;;36.87;19.27;;;;;;;-145.18;100.00;46676.03;5030136;28;20267;-76
2022/12/19 04:31:05;;;;;;;37.73;18.53;;;;;;;-145.18;100.00;46681.88;5019038;28;20307;-76
2022/12/19 04:33:30;;;;;;;35.57;17.60;;;;;;;-145.18;100.00;46685.78;5029894;28;20301;-76
2022/12/19 04:35:56;;;;;;;35.17;18.73;;;;;;;-145.18;100.00;46681.88;5012761;28;20266;-75
2022/12/19 04:38:21;;;;;;;35.63;18.73;;;;;;;-145.18;100.00;46679.94;5030088;28;20037;-75
2022/12/19 04:40:47;;;;;;;35.03;18.43;;;;;;;-145.18;100.00;46679.94;5012562;28;20140;-76
2022/12/19 04:43:12;;;;;;;37.73;19.57;;;;;;;-145.18;100.00;46683.84;5029797;28;20536;-76
2022/12/19 04:45:40;;;;;;;33.87;17.87;;;;;;;-145.18;100.00;46679.94;5030040;28;20033;-76
2022/12/19 04:48:06;;;;;;;35.07;18.60;;;;;;;-145.18;100.00;46677.97;5029852;28;20052;-76
2022/12/19 04:50:33;;;;;;;30.47;17.20;;;;;;;-145.18;100.00;46674.06;5030352;28;20269;-76
2022/12/19 04:52:59;;;;;;;32.53;17.60;;;;;;;-145.18;100.00;46674.06;5029466;28;20036;-76
2022/12/19 04:55:24;;;;;;;29.40;17.00;;;;;;;-145.18;100.00;46677.97;5030124;28;20267;-76
2022/12/19 04:57:49;;;;;;;31.00;17.07;;;;;;;-145.18;100.00;46679.94;5029939;28;20028;-76
2022/12/19 05:00:15;;;;;;;28.67;17.10;;;;;;;-145.18;100.00;46676.03;5029798;28;20108;-76
2022/12/19 05:02:40;;;;;;;27.03;16.20;;;;;;;-145.18;100.00;46674.06;5029183;28;20054;-76
2022/12/19 05:05:06;;;;;;;29.03;15.87;;;;;;;-145.18;100.00;46676.03;5011980;28;20046;-77
2022/12/19 05:07:31;;;;;;;28.00;16.57;;;;;;;-145.18;100.00;46681.88;5030084;28;20058;-77
2022/12/19 05:09:57;;;;;;;29.77;16.47;;;;;;;-145.18;100.00;46672.13;5030155;28;20076;-77
2022/12/19 05:12:22;;;;;;;28.57;15.60;;;;;;;-145.18;100.00;46676.03;5033606;28;20033;-76
2022/12/19 05:14:47;;;;;;;28.33;15.87;;;;;;;-145.18;100.00;46676.03;5033855;28;20072;-76
2022/12/19 05:17:13;;;;;;;24.40;13.83;;;;;;;-145.18;100.00;46676.03;5016069;28;20052;-76
2022/12/19 05:19:38;;;;;;;25.10;14.90;;;;;;;-145.18;100.00;46679.94;5033626;28;20044;-76
2022/12/19 05:22:03;;;;;;;21.83;13.70;;;;;;;-145.18;100.00;46674.06;5033845;28;20551;-76
2022/12/19 05:24:29;;;;;;;27.53;14.77;;;;;;;-145.18;100.00;46674.06;5015783;28;20490;-76
2022/12/19 05:26:54;;;;;;;24.57;14.00;;;;;;;-145.18;100.00;46670.16;5033935;28;20037;-76
2022/12/19 05:29:19;;;;;;;25.73;14.37;;;;;;;-145.18;100.00;46674.06;5033342;28;20029;-76
2022/12/19 05:31:45;;;;;;;26.33;14.13;;;;;;;-145.18;100.00;46672.13;5031941;28;20041;-76
2022/12/19 05:34:10;;;;;;;23.43;14.30;;;;;;;-145.18;100.00;46674.06;5030846;28;20040;-76
2022/12/19 05:36:36;;;;;;;24.87;13.53;;;;;;;-145.18;100.00;46668.22;5032170;28;20057;-76
2022/12/19 05:39:01;;;;;;;28.77;15.43;;;;;;;-145.18;100.00;46672.13;5031326;28;20036;-76
2022/12/19 05:41:26;;;;;;;21.10;11.90;;;;;;;-145.18;100.00;46674.06;5031814;28;20108;-76
2022/12/19 05:43:55;;;;;;;29.83;15.17;;;;;;;-145.18;100.00;46677.97;5031043;28;20068;-76
2022/12/19 05:46:21;;;;;;;26.83;14.87;;;;;;;-145.18;100.00;46681.88;5032313;28;20033;-76
2022/12/19 05:48:46;;;;;;;24.73;14.90;;;;;;;-145.18;100.00;46674.06;5015853;28;20731;-76
2022/12/19 05:51:12;;;;;;;25.73;15.10;;;;;;;-145.18;100.00;46672.13;5033224;28;20274;-76
2022/12/19 05:53:39;;;;;;;22.93;13.37;;;;;;;-145.18;100.00;46676.03;5033192;28;20038;-76
2022/12/19 05:56:06;;;;;;;23.47;14.70;;;;;;;-145.18;100.00;46676.03;5032471;28;20128;-75
2022/12/19 05:58:32;;;;;;;24.60;14.83;;;;;;;-145.18;100.00;46676.03;5032706;28;20262;-75
2022/12/19 06:01:17;;;;;;;26.03;15.43;;;;;;;-145.18;100.00;46672.13;5029867;28;20309;-75
2022/12/19 06:03:43;;;;;;;27.30;15.50;;;;;;;-145.18;100.00;46674.06;5029897;28;20056;-76
2022/12/19 06:06:11;;;;;;;31.90;15.87;;;;;;;-145.18;100.00;46674.06;5024785;28;20290;-75
2022/12/19 06:08:37;;;;;;;28.43;16.07;;;;;;;-145.18;100.00;46676.03;5022636;28;20041;-75
2022/12/19 06:11:05;;;;;;;32.53;16.17;;;;;;;-145.18;100.00;46668.22;5032016;28;20266;-75
2022/12/19 06:13:31;;;;;;;29.10;14.87;;;;;;;-145.18;100.00;46676.03;5029708;28;20521;-75
2022/12/19 06:16:01;;;;;;;31.37;16.13;;;;;;;-145.18;100.00;46668.22;5032347;28;20271;-75
2022/12/19 06:18:28;;;;;;;24.07;14.00;;;;;;;-145.18;100.00;46676.03;5030244;28;20262;-75
2022/12/19 06:20:56;;;;;;;28.27;16.77;;;;;;;-145.18;100.00;46677.97;5026199;28;20378;-75
2022/12/19 06:23:22;;;;;;;28.97;15.03;;;;;;;-145.18;100.00;46674.06;5030859;28;20810;-75
2022/12/19 06:25:47;;;;;;;24.83;15.43;;;;;;;-145.18;100.00;46676.03;5027975;28;20301;-76
2022/12/19 06:28:12;;;;;;;26.00;15.40;;;;;;;-145.18;100.00;46674.06;5016246;28;20430;-76
2022/12/19 06:30:38;;;;;;;24.20;14.57;;;;;;;-145.18;100.00;46679.94;4995274;28;20041;-76
2022/12/19 06:33:03;;;;;;;27.20;15.43;;;;;;;-145.18;100.00;46679.94;5014936;28;20034;-76
2022/12/19 06:35:29;;;;;;;27.40;14.50;;;;;;;-145.18;100.00;46666.25;5027142;28;20065;-76
2022/12/19 06:37:54;;;;;;;26.40;15.70;;;;;;;-145.18;100.00;46672.13;5026870;28;20068;-76
2022/12/19 06:42:21;;;;;;;27.73;14.53;;;;;;;-145.18;100.00;46679.94;5028374;28;20068;-76
2022/12/19 06:43:04;;;;;;;25.13;14.77;;;;;;;-145.18;100.00;46672.13;5051635;28;20470;-73
2022/12/19 06:45:30;;;;;;;24.50;14.40;;;;;;;-145.18;100.00;46676.03;5052388;28;20289;-75
2022/12/19 06:47:56;;;;;;;28.67;15.13;;;;;;;-145.18;100.00;46679.94;5052002;28;20889;-76
2022/12/19 06:50:21;;;;;;;27.13;14.80;;;;;;;-145.18;100.00;46672.13;5051792;28;20473;-75
2022/12/19 06:52:46;;;;;;;27.17;13.37;;;;;;;-145.18;100.00;46676.03;5038236;28;20033;-76
2022/12/19 06:55:12;;;;;;;27.37;14.53;;;;;;;-145.18;100.00;46677.97;5012851;28;20111;-76
2022/12/19 06:57:44;;;;;;;20.67;13.00;;;;;;;-145.18;100.00;46672.13;5012354;28;20137;-76
2022/12/19 07:00:13;;;;;;;24.13;12.87;;;;;;;-145.18;100.00;46670.16;5011108;28;20053;-76
2022/12/19 07:02:43;;;;;;;24.57;14.20;;;;;;;-145.18;100.00;46674.06;5013314;28;20281;-76
2022/12/19 07:05:10;;;;;;;22.47;12.60;;;;;;;-145.18;100.00;46674.06;5029123;28;20326;-76
2022/12/19 07:07:35;;;;;;;21.80;12.83;;;;;;;-145.18;100.00;46677.97;5030386;28;20263;-76
2022/12/19 07:10:03;;;;;;;22.37;13.87;;;;;;;-145.18;100.00;46679.94;5029288;28;20271;-77
2022/12/19 07:12:28;;;;;;;23.43;13.73;;;;;;;-145.18;100.00;46681.88;5031299;28;20022;-76
2022/12/19 07:14:53;;;;;;;21.13;13.33;;;;;;;-145.18;100.00;46676.03;5024662;28;20766;-76
2022/12/19 07:17:20;;;;;;;20.83;12.83;;;;;;;-145.18;100.00;46679.94;5012325;28;20055;-76
2022/12/19 07:19:46;;;;;;;22.27;13.03;;;;;;;-145.18;100.00;46679.94;5030300;28;20080;-75
2022/12/19 07:22:11;;;;;;;18.87;12.17;;;;;;;-145.18;100.00;46677.97;5030135;28;20666;-75
2022/12/19 07:24:37;;;;;;;19.33;11.83;;;;;;;-145.18;100.00;46681.88;5030640;28;20527;-74
2022/12/19 07:27:02;;;;;;;20.93;11.37;;;;;;;-145.18;100.00;46677.97;5030490;28;20029;-75
2022/12/19 07:29:28;;;;;;;20.07;12.70;;;;;;;-145.18;100.00;46681.88;5030472;28;20474;-75
2022/12/19 07:31:53;;;;;;;20.60;11.90;;;;;;;-145.18;100.00;46679.94;5031264;28;20589;-75
2022/12/19 07:34:19;;;;;;;21.37;12.03;;;;;;;-145.18;100.00;46676.03;5029902;28;20128;-75
2022/12/19 07:36:44;;;;;;;22.87;11.73;;;;;;;-145.18;100.00;46679.94;5030941;28;20074;-75
2022/12/19 07:39:10;;;;;;;16.67;10.67;;;;;;;-145.18;100.00;46683.84;5029416;28;20080;-74
2022/12/19 07:41:36;;;;;;;15.43;11.23;;;;;;;-145.18;100.00;46693.59;5030570;28;20041;-74
2022/12/19 07:44:01;;;;;;;18.90;11.17;;;;;;;-145.18;100.00;46681.88;5030842;28;20055;-74
2022/12/19 07:46:29;;;;;;;21.10;12.50;;;;;;;-145.18;100.00;46689.69;5027893;28;20275;-74
2022/12/19 07:48:54;;;;;;;19.73;12.07;;;;;;;-145.18;100.00;46685.78;5029830;28;20033;-74
2022/12/19 07:51:19;;;;;;;20.00;10.97;;;;;;;-145.18;100.00;46685.78;5030056;28;20355;-75
2022/12/19 07:53:45;;;;;;;23.93;12.67;;;;;;;-145.18;100.00;46683.84;5030168;28;20080;-74
2022/12/19 07:56:10;;;;;;;20.73;11.77;;;;;;;-145.18;100.00;46674.06;5030288;28;20048;-75
2022/12/19 07:58:35;;;;;;;20.93;12.63;;;;;;;-145.18;100.00;46689.69;5030264;28;20029;-74
2022/12/19 08:01:01;;;;;;;23.20;12.33;;;;;;;-145.18;100.00;46689.69;5030455;28;20061;-75
2022/12/19 08:03:27;;;;;;;24.80;12.33;;;;;;;-145.18;100.00;46683.84;5012190;28;20065;-75
2022/12/19 08:05:58;;;;;;;18.87;11.73;;;;;;;-145.18;100.00;46683.84;5030045;28;20478;-75
2022/12/19 08:08:24;;;;;;;23.63;13.03;;;;;;;-145.18;100.00;46689.69;5029712;28;20270;-74
2022/12/19 08:10:49;;;;;;;19.70;11.43;;;;;;;-145.18;100.00;46685.78;5030294;28;20275;-74
2022/12/19 08:13:15;;;;;;;20.60;11.13;;;;;;;-145.18;100.00;46683.84;5012131;28;20126;-74
2022/12/19 08:15:40;;;;;;;17.37;11.40;;;;;;;-145.18;100.00;46695.56;5030157;28;20122;-75
2022/12/19 08:18:05;;;;;;;16.47;10.93;;;;;;;-145.18;100.00;46687.75;5029918;28;20037;-74
2022/12/19 08:20:31;;;;;;;21.70;11.77;;;;;;;-145.18;100.00;46679.94;5029676;28;20417;-75
2022/12/19 08:22:56;;;;;;;16.77;10.70;;;;;;;-145.18;100.00;46683.84;5029473;28;20038;-75
2022/12/19 08:25:21;;;;;;;20.97;9.63;;;;;;;-145.18;100.00;46695.56;5029793;28;20048;-75
2022/12/19 08:27:47;;;;;;;18.33;10.30;;;;;;;-145.18;100.00;46687.75;5030057;28;20375;-75
2022/12/19 08:30:13;;;;;;;16.50;10.50;;;;;;;-145.18;100.00;46687.75;5029919;28;20371;-74
2022/12/19 08:32:38;;;;;;;20.27;10.40;;;;;;;-145.18;100.00;46687.75;5029665;28;20048;-74
2022/12/19 08:35:05;;;;;;;16.13;9.90;;;;;;;-145.18;100.00;46687.75;5029384;28;20116;-74
2022/12/19 08:37:31;;;;;;;16.63;10.43;;;;;;;-145.18;100.00;46687.75;5012621;28;20402;-74
2022/12/19 08:39:56;;;;;;;18.00;11.17;;;;;;;-145.18;100.00;46687.75;5029691;28;20275;-74
2022/12/19 08:42:21;;;;;;;15.90;10.17;;;;;;;-145.18;100.00;46701.41;5029092;28;20115;-74
2022/12/19 08:44:47;;;;;;;17.73;10.80;;;;;;;-145.18;100.00;46683.84;5028948;28;20299;-74
2022/12/19 08:47:12;;;;;;;15.87;9.83;;;;;;;-145.18;100.00;46693.59;5029815;28;20541;-75
2022/12/19 08:49:38;;;;;;;15.13;9.77;;;;;;;-145.18;100.00;46689.69;5029528;28;20503;-75
2022/12/19 08:52:03;;;;;;;18.50;9.83;;;;;;;-145.18;100.00;46691.66;5029598;28;20044;-75
2022/12/19 08:54:28;;;;;;;15.33;9.27;;;;;;;-145.18;100.00;46691.66;5028289;28;20061;-75
2022/12/19 08:56:54;;;;;;;14.93;9.73;;;;;;;-145.18;100.00;46689.69;5011927;28;20450;-75
2022/12/19 08:59:19;;;;;;;17.30;9.23;;;;;;;-145.18;100.00;46695.56;5029560;28;20038;-75
2022/12/19 09:01:45;;;;;;;13.37;9.17;;;;;;;-145.18;100.00;46695.56;5012071;28;20030;-75
2022/12/19 09:04:10;;;;;;;15.43;9.07;;;;;;;-145.18;100.00;46685.78;5028982;28;20077;-75
2022/12/19 09:06:36;;;;;;;16.23;9.37;;;;;;;-145.18;100.00;46691.66;5028366;28;20072;-75
2022/12/19 09:09:04;;;;;;;15.10;8.70;;;;;;;-145.18;100.00;46707.28;5027983;28;20478;-75
2022/12/19 09:11:30;;;;;;;14.13;8.83;;;;;;;-145.18;100.00;46687.75;5013208;28;20056;-74
2022/12/19 09:13:56;;;;;;;14.17;8.97;;;;;;;-145.18;100.00;46697.50;5028478;28;20320;-75
2022/12/19 09:16:24;;;;;;;14.70;9.07;;;;;;;-145.18;100.00;46695.56;5029579;28;20137;-75
2022/12/19 09:18:51;;;;;;;13.33;8.43;;;;;;;-145.18;100.00;46697.50;5029205;28;20770;-75
2022/12/19 09:21:19;;;;;;;14.17;8.83;;;;;;;-145.18;100.00;46691.66;5029005;28;20270;-76
2022/12/19 09:23:55;;;;;;;14.17;9.07;;;;;;;-145.18;100.00;46691.66;5029195;28;20281;-75
2022/12/19 09:26:22;;;;;;;15.63;8.23;;;;;;;-145.18;100.00;46703.38;5029226;28;20275;-75
2022/12/19 09:28:48;;;;;;;20.13;8.87;;;;;;;-145.18;100.00;46699.47;5029145;28;20259;-74
2022/12/19 09:31:16;;;;;;;17.40;9.23;;;;;;;-145.18;100.00;46705.31;5029376;28;20270;-74
2022/12/19 09:33:42;;;;;;;16.13;9.23;;;;;;;-145.18;100.00;46693.59;5029051;28;20328;-74
2022/12/19 09:36:12;;;;;;;17.47;8.37;;;;;;;-145.18;100.00;46703.38;5029001;28;20266;-74
2022/12/19 09:38:37;;;;;;;16.60;9.27;;;;;;;-145.18;100.00;46703.38;5029034;28;20274;-74
2022/12/19 09:41:40;;;;;;;19.87;10.13;;;;;;;-145.18;100.00;46699.47;5029131;28;20312;-74
2022/12/19 09:44:36;;;;;;;14.43;8.73;;;;;;;-145.18;100.00;46691.66;5028705;28;20397;-74
2022/12/19 09:47:09;;;;;;;15.68;8.63;;;;;;;-145.18;100.00;46703.38;5029101;28;20290;-74
2022/12/19 09:49:40;;;;;;;14.63;8.70;;;;;;;-145.18;100.00;46693.59;5029175;28;20037;-74
2022/12/19 09:52:36;;;;;;;13.20;7.70;;;;;;;-145.18;100.00;46705.31;5028607;28;20274;-74
2022/12/19 09:55:13;;;;;;;12.35;8.18;;;;;;;-145.18;100.00;46697.50;5029007;28;20846;-74
2022/12/19 09:58:02;;;;;;;15.20;7.80;;;;;;;-145.18;100.00;46691.66;5031672;28;20053;-75
2022/12/19 10:00:34;;;;;;;18.77;8.00;;;;;;;-145.18;100.00;46709.22;5032724;28;20266;-75
2022/12/19 10:03:38;;;;;;;15.23;8.63;;;;;;;-145.18;100.00;46697.50;5032199;28;20377;-75
2022/12/19 10:06:17;;;;;;;12.30;8.43;;;;;;;-145.18;100.00;46701.41;5030308;28;20295;-75
2022/12/19 10:08:44;;;;;;;14.73;7.60;;;;;;;-145.18;100.00;46707.28;5032420;28;20275;-75
2022/12/19 10:11:31;;;;;;;11.87;7.47;;;;;;;-145.18;100.00;46707.28;5032135;28;20279;-75
2022/12/19 10:14:06;;;;;;;11.27;7.60;;;;;;;-145.18;100.00;46707.28;5032044;28;20267;-75
2022/12/19 10:17:08;;;;;;;12.10;7.57;;;;;;;-145.18;100.00;46705.31;5032641;28;21021;-75
2022/12/19 10:19:46;;;;;;;14.27;7.80;;;;;;;-145.18;100.00;46709.22;5032310;28;20076;-75
2022/12/19 10:22:20;;;;;;;11.63;8.17;;;;;;;-145.18;100.00;46703.38;5032286;28;20278;-75
2022/12/19 10:25:13;;;;;;;9.03;6.83;;;;;;;-145.18;100.00;46705.31;5031862;28;20286;-75
2022/12/19 10:27:51;;;;;;;12.07;6.47;;;;;;;-145.18;100.00;46709.22;5032297;28;20266;-75
2022/12/19 10:30:19;;;;;;;10.57;7.00;;;;;;;-145.18;100.00;46709.22;5031842;28;20262;-76
2022/12/19 10:32:51;;;;;;;8.90;6.20;;;;;;;-145.18;100.00;46705.31;5032030;28;20615;-75
2022/12/19 10:35:18;;;;;;;10.53;6.67;;;;;;;-145.18;100.00;46709.22;5031631;28;20271;-76
2022/12/19 10:37:55;;;;;;;11.03;6.97;;;;;;;-145.18;100.00;46707.28;5032022;28;20844;-75
2022/12/19 10:40:36;;;;;;;14.33;7.17;;;;;;;-145.18;100.00;46709.22;5031719;28;20258;-75
2022/12/19 10:43:21;;;;;;;10.77;6.63;;;;;;;-145.18;100.00;46709.22;5032134;28;20277;-75
2022/12/19 10:45:56;;;;;;;11.37;6.50;;;;;;;-145.18;100.00;46713.13;5031901;28;20349;-76
2022/12/19 10:48:22;;;;;;;9.65;6.68;;;;;;;-145.18;100.00;46709.22;5031691;28;20270;-75
2022/12/19 10:50:48;;;;;;;9.83;5.73;;;;;;;-145.18;100.00;46711.19;5031713;28;20033;-76
2022/12/19 10:53:15;;;;;;;9.73;6.10;;;;;;;-145.18;100.00;46711.19;5013894;28;20037;-76
2022/12/19 10:55:43;;;;;;;11.10;7.03;;;;;;;-145.18;100.00;46711.19;5030510;28;20029;-76
2022/12/19 10:58:23;;;;;;;11.27;7.43;;;;;;;-145.18;100.00;46711.19;5031151;28;20271;-76
2022/12/19 11:01:23;;;;;;;10.17;6.50;;;;;;;-145.18;100.00;46711.19;5030990;28;20255;-76
2022/12/19 11:04:09;;;;;;;10.37;6.87;;;;;;;-145.18;100.00;46709.22;5029555;28;20332;-76
2022/12/19 11:06:40;;;;;;;;;;;;;;;-145.18;100.00;46711.19;5030962;28;20345;-76
2022/12/19 11:09:28;;;;;;;11.40;6.43;;;;;;;-145.18;100.00;46705.31;5029438;28;19924;-76
2022/12/19 11:12:05;;;;;;;11.10;6.37;;;;;;;-145.18;100.00;46703.38;5029800;28;20325;-76
2022/12/19 11:14:32;;;;;;;11.60;7.17;;;;;;;-145.18;100.00;46707.28;5030880;28;20357;-76
2022/12/19 11:16:58;;;;;;;12.50;6.90;;;;;;;-145.18;100.00;46705.31;5030995;28;20270;-76